Terminal Aerodrome Forecast
Issued by NWS Pittsburgh, PA

Current Version | Previous Version | Graphics & Text | Print | Product List | Glossary On
Versions: 1 2 3 4 5 6 7 8 9 10 11 12 13 14 15 16 17 18 19 20 21 22 23 24 25 26 27 28 29 30 31 32 33 34
852
FTUS41 KPBZ 131015 AAC
TAFPIT
TAF AMD
KPIT 131015Z 1310/1412 32014G23KT 4SM -SHSN BKN015 OVC022
      TEMPO 1310/1311 1/2SM SHSN VV009
     FM131500 31012G20KT P6SM BKN035=

USA.gov is the U.S. government's official web portal to all federal, state and local government web resources and services.